Time;durP1;ratioP1;P1;durP2;ratioP2;P2;SDS_P1;SDS_P2;PMS_P1;PMS_P2;Temp;Humidity;BMP_temperature;BMP_pressure;BME280_temperature;BME280_humidity;BME280_pressure;Samples;Min_cycle;Max_cycle;Signal;HPM_P1;HPM_P2
2022/09/14 00:01:51;;;;;;;2.87;1.72;;;;;;;12.08;77.52;99772.95;1778451;80;21189;-55
2022/09/14 00:04:57;;;;;;;2.17;1.60;;;;;;;12.10;77.62;99778.55;1797936;79;21311;-54
2022/09/14 00:08:04;;;;;;;2.15;1.62;;;;;;;12.12;77.62;99769.61;1800001;79;21331;-54
2022/09/14 00:11:16;;;;;;;2.27;1.72;;;;;;;12.11;77.51;99772.55;1777951;80;21166;-54
2022/09/14 00:14:21;;;;;;;2.35;1.85;;;;;;;12.12;77.56;99780.58;1778137;80;21217;-55
2022/09/14 00:17:27;;;;;;;2.05;1.50;;;;;;;12.13;77.66;99774.03;1778221;80;21209;-55
2022/09/14 00:20:32;;;;;;;3.62;1.80;;;;;;;12.17;77.73;99764.37;1777749;80;21161;-56
2022/09/14 00:23:40;;;;;;;2.60;1.80;;;;;;;12.18;77.77;99763.30;1777968;80;21311;-54
2022/09/14 00:26:47;;;;;;;3.45;2.00;;;;;;;12.22;77.78;99758.27;1765608;81;21182;-55
2022/09/14 00:29:54;;;;;;;4.20;2.55;;;;;;;12.23;77.78;99766.81;1777896;80;21194;-55
2022/09/14 00:33:00;;;;;;;3.08;2.50;;;;;;;12.24;77.83;99761.12;1778135;80;21201;-55
2022/09/14 00:36:20;;;;;;;4.22;3.17;;;;;;;12.25;77.77;99765.58;1777676;80;21201;-55
2022/09/14 00:39:29;;;;;;;3.42;2.83;;;;;;;12.26;77.77;99767.81;1778036;80;21272;-55
2022/09/14 00:42:35;;;;;;;4.87;3.62;;;;;;;12.26;77.82;99770.02;1778071;80;21225;-56
2022/09/14 00:45:40;;;;;;;5.87;3.70;;;;;;;12.25;77.83;99761.98;1778077;80;21174;-55
2022/09/14 00:48:46;;;;;;;4.87;3.20;;;;;;;12.24;77.81;99766.61;1778025;80;21195;-53
2022/09/14 00:52:03;;;;;;;6.37;3.55;;;;;;;12.22;77.83;99764.62;1790848;79;21221;-54
2022/09/14 00:55:16;;;;;;;4.78;3.45;;;;;;;12.20;77.84;99758.47;1796843;79;21304;-55
2022/09/14 00:58:22;;;;;;;5.08;3.62;;;;;;;12.18;77.82;99760.56;1798287;79;21374;-53
2022/09/14 01:01:28;;;;;;;3.47;2.80;;;;;;;12.15;77.84;99758.73;1796496;79;21217;-54
2022/09/14 01:04:34;;;;;;;4.15;3.00;;;;;;;12.14;77.88;99764.77;1798519;79;21205;-55
2022/09/14 01:07:56;;;;;;;3.83;2.80;;;;;;;12.12;77.80;99764.12;1798016;79;21185;-54
2022/09/14 01:11:16;;;;;;;3.20;2.75;;;;;;;12.08;77.77;99760.09;1772597;79;21236;-53
2022/09/14 01:14:25;;;;;;;5.50;2.85;;;;;;;12.04;77.79;99767.88;1796925;79;21193;-53
2022/09/14 01:18:16;;;;;;;3.98;2.90;;;;;;;12.01;77.81;99767.41;1797017;79;21260;-55
2022/09/14 01:21:43;;;;;;;3.42;2.60;;;;;;;12.01;77.90;99770.16;1796991;79;21217;-55
2022/09/14 01:25:02;;;;;;;4.67;3.08;;;;;;;11.98;77.88;99774.67;1796718;79;21228;-55
2022/09/14 01:28:10;;;;;;;3.83;3.05;;;;;;;11.96;77.89;99770.77;1796655;79;21221;-54
2022/09/14 01:31:20;;;;;;;3.00;2.42;;;;;;;11.95;77.92;99770.96;1798135;79;21181;-55
2022/09/14 01:34:48;;;;;;;3.80;2.77;;;;;;;11.95;77.97;99762.73;1796958;79;21390;-55
2022/09/14 01:38:17;;;;;;;2.83;2.47;;;;;;;11.93;77.96;99764.82;1797455;79;21232;-54
2022/09/14 01:41:29;;;;;;;2.60;2.37;;;;;;;11.90;77.98;99773.45;1796770;79;21224;-56
2022/09/14 01:44:39;;;;;;;5.40;2.80;;;;;;;11.89;77.98;99777.25;1798567;79;21579;-55
2022/09/14 01:47:50;;;;;;;3.22;2.77;;;;;;;11.88;77.98;99772.80;1797262;79;21201;-54
2022/09/14 01:51:00;;;;;;;3.20;2.58;;;;;;;11.84;77.95;99774.25;1798749;79;21209;-55
2022/09/14 01:54:10;;;;;;;3.58;2.77;;;;;;;11.81;77.94;99771.91;1734105;82;21741;-55
2022/09/14 01:57:38;;;;;;;2.83;2.52;;;;;;;11.75;77.86;99769.94;1734365;82;21204;-56
2022/09/14 02:00:47;;;;;;;4.28;2.62;;;;;;;11.67;77.81;99768.73;1722376;82;21169;-55
2022/09/14 02:04:04;;;;;;;3.15;2.60;;;;;;;11.65;77.90;99769.45;1734011;82;21267;-55
2022/09/14 02:07:10;;;;;;;3.45;2.70;;;;;;;11.63;77.97;99767.42;1734013;82;21193;-55
2022/09/14 02:10:17;;;;;;;4.60;2.65;;;;;;;11.59;77.95;99765.55;1734711;82;21184;-55
2022/09/14 02:13:24;;;;;;;3.87;2.67;;;;;;;11.56;77.99;99767.88;1734404;82;21204;-55
2022/09/14 02:16:29;;;;;;;6.53;2.77;;;;;;;11.56;78.05;99767.88;1736192;82;21188;-56
2022/09/14 02:19:39;;;;;;;4.30;3.00;;;;;;;11.54;78.05;99775.44;1737258;82;21196;-54
2022/09/14 02:22:44;;;;;;;3.72;2.55;;;;;;;11.54;78.11;99780.37;1734346;82;21327;-53
2022/09/14 02:25:52;;;;;;;5.87;2.47;;;;;;;11.55;78.21;99775.23;1738248;81;21187;-53
2022/09/14 02:28:58;;;;;;;3.85;2.70;;;;;;;11.55;78.13;99775.23;1734095;82;21192;-54
2022/09/14 02:32:20;;;;;;;2.85;2.55;;;;;;;11.54;78.09;99775.44;1734602;82;21286;-55
2022/09/14 02:35:46;;;;;;;4.45;2.80;;;;;;;11.52;78.16;99773.41;1734038;82;21169;-55
2022/09/14 02:39:11;;;;;;;3.70;2.65;;;;;;;11.54;78.19;99772.15;1734029;82;21236;-54
2022/09/14 02:42:30;;;;;;;3.37;2.67;;;;;;;11.52;78.23;99780.25;1734630;81;21307;-54
2022/09/14 02:46:17;;;;;;;3.47;2.77;;;;;;;11.52;78.24;99781.63;1744754;82;21188;-55
2022/09/14 02:49:56;;;;;;;3.12;2.52;;;;;;;11.50;78.23;99776.85;1742235;82;21188;-54
2022/09/14 02:53:26;;;;;;;9.38;2.72;;;;;;;11.51;78.31;99788.16;1754923;78;21216;-55
2022/09/14 02:56:33;;;;;;;3.22;2.55;;;;;;;11.52;78.35;99785.73;1768820;80;21317;-54
2022/09/14 02:59:38;;;;;;;4.87;2.50;;;;;;;11.51;78.40;99782.69;1756935;81;21218;-55
2022/09/14 03:02:44;;;;;;;4.22;2.50;;;;;;;11.53;78.46;99785.54;1766936;80;21228;-55
2022/09/14 03:05:51;;;;;;;4.17;2.90;;;;;;;11.55;78.50;99792.19;1766683;80;21182;-55
2022/09/14 03:08:58;;;;;;;3.33;2.87;;;;;;;11.56;78.52;99794.73;1766984;80;21265;-54
2022/09/14 03:12:04;;;;;;;2.83;2.52;;;;;;;11.58;78.54;99791.28;1756658;81;21190;-54
2022/09/14 03:15:09;;;;;;;4.00;2.80;;;;;;;11.61;78.57;99790.03;1766708;80;21213;-55
2022/09/14 03:18:14;;;;;;;5.70;3.33;;;;;;;11.63;78.55;99797.58;1767920;80;21201;-54
2022/09/14 03:21:22;;;;;;;3.30;2.80;;;;;;;11.63;78.58;99791.58;1756869;81;21205;-54
2022/09/14 03:24:31;;;;;;;5.22;2.67;;;;;;;11.66;78.58;99790.33;1756777;81;21273;-55
2022/09/14 03:27:36;;;;;;;4.15;3.10;;;;;;;11.66;78.56;99795.81;1766830;80;21170;-56
2022/09/14 03:30:43;;;;;;;3.40;2.80;;;;;;;11.66;78.54;99793.06;1766737;80;21237;-56
2022/09/14 03:33:49;;;;;;;4.55;3.00;;;;;;;11.67;78.54;99796.16;1767269;80;21225;-57
2022/09/14 03:36:55;;;;;;;5.12;2.85;;;;;;;11.68;78.57;99792.36;1766437;81;21627;-57
2022/09/14 03:40:02;;;;;;;3.60;2.83;;;;;;;11.69;78.60;99796.78;1766660;80;21273;-56
2022/09/14 03:43:08;;;;;;;4.17;3.02;;;;;;;11.70;78.60;99794.39;1766790;80;21210;-55
2022/09/14 03:46:22;;;;;;;3.52;2.95;;;;;;;11.72;78.56;99804.09;1766680;80;21174;-57
2022/09/14 03:49:28;;;;;;;7.60;3.50;;;;;;;11.74;78.53;99806.64;1766624;80;21339;-56
2022/09/14 03:52:36;;;;;;;4.83;3.45;;;;;;;11.71;78.42;99801.04;1766632;80;21198;-58
2022/09/14 03:55:41;;;;;;;4.22;3.33;;;;;;;11.70;78.37;99805.36;1766366;80;21182;-57
2022/09/14 03:58:50;;;;;;;5.42;3.37;;;;;;;11.67;78.35;99812.60;1766810;80;21287;-58
2022/09/14 04:01:57;;;;;;;7.35;3.55;;;;;;;11.62;78.30;99810.39;1755373;81;21193;-57
2022/09/14 04:05:03;;;;;;;8.20;3.72;;;;;;;11.61;78.28;99811.45;1755279;81;21206;-55
2022/09/14 04:08:09;;;;;;;5.85;3.40;;;;;;;11.59;78.34;99809.42;1766210;80;21218;-56
2022/09/14 04:11:16;;;;;;;4.78;3.30;;;;;;;11.62;78.41;99820.53;1771074;80;21165;-56
2022/09/14 04:14:22;;;;;;;5.25;3.30;;;;;;;11.65;78.43;99813.31;1787639;80;21283;-57
2022/09/14 04:17:27;;;;;;;5.53;3.65;;;;;;;11.69;78.45;99820.09;1784007;80;21154;-56
2022/09/14 04:20:34;;;;;;;5.20;3.75;;;;;;;11.72;78.42;99816.44;1766522;80;21210;-57
2022/09/14 04:23:42;;;;;;;4.55;3.45;;;;;;;11.75;78.38;99824.78;1766350;80;21226;-56
2022/09/14 04:26:50;;;;;;;4.53;3.55;;;;;;;11.76;78.38;99830.09;1766793;81;21241;-55
2022/09/14 04:29:59;;;;;;;5.15;3.58;;;;;;;11.78;78.40;99832.64;1768723;80;21165;-56
2022/09/14 04:33:06;;;;;;;5.35;3.25;;;;;;;11.81;78.41;99830.33;1768921;81;21240;-57
2022/09/14 04:36:18;;;;;;;4.95;3.40;;;;;;;11.84;78.43;99830.47;1768962;81;21233;-55
2022/09/14 04:39:25;;;;;;;5.67;3.80;;;;;;;11.88;78.44;99829.88;1768922;81;21190;-57
2022/09/14 04:42:33;;;;;;;5.20;4.12;;;;;;;11.90;78.43;99834.65;1758711;81;21194;-57
2022/09/14 04:45:40;;;;;;;4.33;3.50;;;;;;;11.93;78.42;99831.51;1768961;81;21217;-56
2022/09/14 04:48:47;;;;;;;6.10;3.70;;;;;;;11.94;78.42;99829.08;1768988;81;21682;-56
2022/09/14 04:51:54;;;;;;;4.78;3.80;;;;;;;11.97;78.39;99825.11;1780562;79;21342;-55
2022/09/14 04:55:00;;;;;;;4.30;3.62;;;;;;;11.99;78.38;99828.48;1811791;78;21230;-56
2022/09/14 04:58:07;;;;;;;5.90;3.92;;;;;;;12.03;78.40;99833.36;1810650;78;21273;-56
2022/09/14 05:01:13;;;;;;;6.03;4.45;;;;;;;12.05;78.37;99830.42;1778829;79;21193;-57
2022/09/14 05:04:19;;;;;;;8.13;4.05;;;;;;;12.06;78.38;99825.28;1830276;78;21823;-57
2022/09/14 05:07:26;;;;;;;6.33;3.90;;;;;;;12.08;78.41;99827.31;1803463;78;21215;-56
2022/09/14 05:10:39;;;;;;;6.10;4.75;;;;;;;12.09;78.39;99830.37;1805737;78;21331;-55
2022/09/14 05:13:44;;;;;;;6.83;4.70;;;;;;;12.09;78.37;99831.73;1788880;79;21216;-55
2022/09/14 05:17:00;;;;;;;4.97;4.20;;;;;;;12.08;78.36;99838.28;1803928;78;21195;-56
2022/09/14 05:20:13;;;;;;;7.87;4.40;;;;;;;12.08;78.35;99837.73;1789325;79;21224;-57
2022/09/14 05:23:22;;;;;;;3.85;3.45;;;;;;;12.06;78.36;99830.77;1737287;80;21216;-54
2022/09/14 05:26:32;;;;;;;6.72;4.33;;;;;;;12.06;78.36;99834.88;1763253;80;21175;-55
2022/09/14 05:29:39;;;;;;;6.67;4.00;;;;;;;12.10;78.47;99839.45;1778438;79;21231;-55
2022/09/14 05:32:46;;;;;;;6.95;5.05;;;;;;;12.16;78.47;99836.77;1776822;79;21772;-55
2022/09/14 05:35:56;;;;;;;5.72;4.90;;;;;;;12.25;78.55;99841.05;1786594;79;21225;-55
2022/09/14 05:39:08;;;;;;;7.12;5.40;;;;;;;12.34;78.52;99842.58;1776923;79;21196;-56
2022/09/14 05:42:20;;;;;;;6.53;4.95;;;;;;;12.42;78.54;99839.69;1790432;78;21184;-56
2022/09/14 05:45:26;;;;;;;7.17;4.67;;;;;;;12.49;78.46;99846.08;1827858;78;21526;-55
2022/09/14 05:48:31;;;;;;;5.60;5.00;;;;;;;12.56;78.43;99845.58;1779709;79;21268;-55
2022/09/14 05:51:37;;;;;;;6.97;5.10;;;;;;;12.60;78.41;99840.55;1785356;79;21344;-55
2022/09/14 05:54:48;;;;;;;9.23;5.35;;;;;;;12.63;78.39;99841.51;1804429;77;21259;-53
2022/09/14 05:57:57;;;;;;;9.75;5.12;;;;;;;12.68;78.40;99837.12;1782494;79;21606;-55
2022/09/14 06:01:15;;;;;;;7.97;5.95;;;;;;;12.73;78.34;99846.94;1747902;79;21199;-54
2022/09/14 06:04:21;;;;;;;8.60;5.62;;;;;;;12.82;78.42;99861.38;1783857;80;21204;-55
2022/09/14 06:07:30;;;;;;;7.45;5.00;;;;;;;12.89;78.41;99863.64;1763175;79;21197;-56
2022/09/14 06:10:36;;;;;;;6.60;4.80;;;;;;;12.96;78.41;99869.48;1744943;79;21193;-55
2022/09/14 06:13:43;;;;;;;5.70;4.62;;;;;;;13.00;78.35;99868.56;1751660;80;21763;-56
2022/09/14 06:16:50;;;;;;;6.87;5.00;;;;;;;13.05;78.30;99880.65;1745619;81;21188;-57
2022/09/14 06:19:57;;;;;;;5.87;4.95;;;;;;;13.09;78.28;99888.83;1745674;81;21347;-58
2022/09/14 06:23:03;;;;;;;5.72;4.70;;;;;;;13.14;78.24;99876.70;1746234;81;21228;-57
2022/09/14 06:26:12;;;;;;;6.12;5.50;;;;;;;13.19;78.23;99880.20;1787137;79;21228;-57
2022/09/14 06:29:18;;;;;;;8.35;5.80;;;;;;;13.24;78.19;99882.64;1772461;79;21214;-57
2022/09/14 06:32:26;;;;;;;7.60;5.60;;;;;;;13.28;78.19;99879.83;1799595;79;21246;-57
2022/09/14 06:35:32;;;;;;;9.58;6.28;;;;;;;13.35;78.20;99882.05;1760447;80;21177;-58
2022/09/14 06:38:38;;;;;;;10.35;6.08;;;;;;;13.38;78.09;99881.64;1798992;78;21235;-56
2022/09/14 06:41:56;;;;;;;9.70;6.62;;;;;;;13.41;78.02;99879.02;1761804;79;21769;-57
2022/09/14 06:45:32;;;;;;;10.90;7.25;;;;;;;13.40;77.97;99882.28;1675604;83;21216;-55
2022/09/14 06:48:50;;;;;;;11.08;7.12;;;;;;;13.39;77.97;99873.73;1711018;83;21246;-56
2022/09/14 06:51:56;;;;;;;9.88;7.00;;;;;;;13.41;78.01;99883.14;1714353;83;21223;-56
2022/09/14 06:55:04;;;;;;;11.05;8.53;;;;;;;13.43;78.05;99872.77;1698940;83;21243;-55
2022/09/14 06:58:11;;;;;;;12.30;7.83;;;;;;;13.47;78.04;99873.55;1696278;84;21212;-55
2022/09/14 07:01:22;;;;;;;12.18;8.15;;;;;;;13.52;78.11;99872.37;1653519;86;21235;-58
2022/09/14 07:04:34;;;;;;;9.75;8.30;;;;;;;13.66;78.21;99873.79;1681075;85;21254;-55
2022/09/14 07:07:43;;;;;;;9.50;8.50;;;;;;;13.75;78.19;99873.94;1672114;83;21208;-57
2022/09/14 07:10:54;;;;;;;10.50;9.28;;;;;;;13.81;78.10;99879.42;1708541;82;21207;-56
2022/09/14 07:14:07;;;;;;;12.63;9.90;;;;;;;13.79;77.98;99878.81;1677270;84;21320;-57
2022/09/14 07:17:15;;;;;;;16.27;9.05;;;;;;;13.81;78.01;99876.67;1673052;83;21200;-56
2022/09/14 07:20:21;;;;;;;14.55;10.03;;;;;;;13.83;78.03;99868.21;1689298;83;21709;-56
2022/09/14 07:23:27;;;;;;;12.45;10.15;;;;;;;13.83;78.02;99880.08;1694380;84;21279;-55
2022/09/14 07:26:42;;;;;;;12.37;10.00;;;;;;;13.88;78.03;99872.56;1679179;84;21714;-56
2022/09/14 07:29:48;;;;;;;15.65;10.60;;;;;;;13.94;78.05;99880.00;1693801;84;21224;-55
2022/09/14 07:32:54;;;;;;;12.07;9.93;;;;;;;13.96;77.99;99875.97;1665770;85;21323;-57
2022/09/14 07:36:01;;;;;;;13.62;10.10;;;;;;;13.92;77.90;99880.73;1695898;83;21204;-56
2022/09/14 07:39:08;;;;;;;15.13;10.40;;;;;;;13.91;77.93;99883.14;1696095;83;21217;-56
2022/09/14 07:42:14;;;;;;;15.65;10.18;;;;;;;13.90;77.97;99876.81;1674967;85;21220;-58
2022/09/14 07:45:21;;;;;;;12.80;10.43;;;;;;;13.90;78.00;99880.09;1695468;83;21755;-56
2022/09/14 07:48:27;;;;;;;12.60;10.63;;;;;;;13.92;78.10;99879.36;1653211;85;21253;-55
2022/09/14 07:51:35;;;;;;;13.10;9.78;;;;;;;13.98;78.16;99881.27;1688455;84;21768;-55
2022/09/14 07:54:42;;;;;;;17.60;9.85;;;;;;;14.06;78.20;99874.19;1696209;83;21643;-55
2022/09/14 07:57:51;;;;;;;11.85;8.73;;;;;;;14.12;78.14;99881.08;1669436;85;21790;-56
2022/09/14 08:00:58;;;;;;;8.60;7.70;;;;;;;14.22;78.19;99882.03;1663843;85;21487;-54
2022/09/14 08:04:09;;;;;;;10.38;8.50;;;;;;;14.29;78.12;99872.73;1706043;82;21228;-55
2022/09/14 08:07:15;;;;;;;11.03;7.95;;;;;;;14.37;78.12;99867.53;1710508;83;21204;-57
2022/09/14 08:10:19;;;;;;;9.90;7.53;;;;;;;14.47;78.07;99874.84;1708697;83;21235;-57
2022/09/14 08:13:32;;;;;;;12.60;7.58;;;;;;;14.55;78.04;99873.26;1715704;83;21285;-56
2022/09/14 08:16:51;;;;;;;10.78;7.65;;;;;;;14.67;78.06;99864.13;1725385;82;21198;-53
2022/09/14 08:19:58;;;;;;;9.53;7.10;;;;;;;14.80;78.03;99858.59;1687333;84;21220;-54
2022/09/14 08:23:06;;;;;;;9.63;7.55;;;;;;;14.96;78.05;99860.02;1705925;82;21226;-56
2022/09/14 08:26:22;;;;;;;8.23;5.85;;;;;;;15.09;77.96;99864.13;1685329;84;21753;-55
2022/09/14 08:29:29;;;;;;;8.30;5.47;;;;;;;15.18;77.84;99868.32;1713310;82;21573;-55
2022/09/14 08:32:34;;;;;;;6.33;4.17;;;;;;;15.18;77.70;99860.05;1711104;84;21204;-55
2022/09/14 08:35:43;;;;;;;8.65;3.67;;;;;;;15.17;77.66;99866.64;1710726;84;21263;-55
2022/09/14 08:38:51;;;;;;;4.03;3.62;;;;;;;15.16;77.60;99859.97;1730049;82;21218;-54
2022/09/14 08:42:04;;;;;;;3.42;2.60;;;;;;;15.18;77.64;99862.81;1694307;83;21645;-55
2022/09/14 08:45:14;;;;;;;3.83;2.90;;;;;;;15.24;77.61;99859.73;1693046;83;21261;-55
2022/09/14 08:48:31;;;;;;;10.10;3.37;;;;;;;15.25;77.55;99865.55;1709256;83;21602;-56
2022/09/14 08:51:59;;;;;;;4.80;3.20;;;;;;;15.24;77.47;99868.82;1702427;83;21228;-53
2022/09/14 08:55:08;;;;;;;4.22;3.12;;;;;;;15.21;77.44;99871.16;1714833;83;21211;-55
2022/09/14 08:58:26;;;;;;;3.52;2.80;;;;;;;15.21;77.50;99871.16;1678507;85;21273;-56
2022/09/14 09:02:22;;;;;;;3.20;2.83;;;;;;;15.23;77.48;99871.80;1687424;83;21229;-55
2022/09/14 09:05:55;;;;;;;3.55;2.72;;;;;;;15.25;77.55;99873.30;1678638;84;21220;-55
2022/09/14 09:09:27;;;;;;;7.78;3.37;;;;;;;15.22;77.53;99881.15;1684100;83;21240;-55
2022/09/14 09:12:54;;;;;;;4.03;3.27;;;;;;;15.19;77.46;99879.66;1678732;84;21228;-57
2022/09/14 09:20:25;;;;;;;5.05;3.40;;;;;;;15.14;77.45;99875.35;1673174;84;21307;-56
2022/09/14 09:23:32;;;;;;;5.15;4.10;;;;;;;15.20;77.46;99874.47;1660229;84;21220;-57
2022/09/14 09:26:44;;;;;;;4.65;4.00;;;;;;;15.29;77.39;99878.67;1675363;84;21220;-57
2022/09/14 09:29:52;;;;;;;10.28;4.72;;;;;;;15.44;77.47;99872.39;1682757;84;21252;-55
2022/09/14 09:32:58;;;;;;;4.92;4.05;;;;;;;15.56;77.41;99873.38;1671277;84;21895;-55
2022/09/14 09:36:07;;;;;;;5.62;4.55;;;;;;;15.73;77.39;99866.83;1673655;84;21296;-57
2022/09/14 09:39:14;;;;;;;6.67;4.60;;;;;;;15.91;77.32;99871.91;1673964;84;21872;-56
2022/09/14 09:42:29;;;;;;;6.10;4.47;;;;;;;16.10;77.21;99867.30;1675531;84;21211;-55
2022/09/14 09:45:55;;;;;;;6.30;5.35;;;;;;;16.24;77.05;99868.36;1675850;84;21228;-55
2022/09/14 09:49:05;;;;;;;6.92;5.12;;;;;;;16.37;76.87;99868.78;1646755;86;21241;-56
2022/09/14 09:52:17;;;;;;;6.05;5.45;;;;;;;16.52;76.84;99865.72;1652339;85;21210;-56
2022/09/14 09:55:28;;;;;;;6.08;4.92;;;;;;;16.65;76.76;99865.03;1674566;85;21755;-56
2022/09/14 09:58:43;;;;;;;7.00;6.30;;;;;;;16.73;76.63;99864.75;1642930;86;21243;-56
2022/09/14 10:01:52;;;;;;;8.88;7.08;;;;;;;16.82;76.61;99868.07;1641059;87;21258;-56
2022/09/14 10:05:18;;;;;;;9.35;7.50;;;;;;;16.85;76.49;99860.17;1668101;85;21286;-55
2022/09/14 10:08:26;;;;;;;10.90;7.80;;;;;;;16.81;76.39;99865.84;1645959;86;21270;-55
2022/09/14 10:11:44;;;;;;;11.45;7.85;;;;;;;16.72;76.33;99863.59;1652363;85;21259;-55
2022/09/14 10:14:53;;;;;;;13.78;9.38;;;;;;;16.62;76.27;99868.81;1668049;85;21338;-55
2022/09/14 10:18:19;;;;;;;14.58;10.98;;;;;;;16.53;76.34;99864.10;1629200;86;21207;-55
2022/09/14 10:22:13;;;;;;;15.63;10.10;;;;;;;16.56;76.48;99864.17;1643024;85;21565;-55
2022/09/14 10:25:25;;;;;;;13.45;10.13;;;;;;;16.64;76.51;99859.73;1614190;87;21230;-57
2022/09/14 10:28:38;;;;;;;13.98;10.75;;;;;;;16.68;76.53;99863.75;1612236;87;21234;-55
2022/09/14 10:31:46;;;;;;;13.55;10.35;;;;;;;16.76;76.54;99860.14;1667258;85;21226;-56
2022/09/14 10:34:53;;;;;;;12.95;10.93;;;;;;;16.87;76.58;99861.33;1644021;85;21667;-54
2022/09/14 10:38:27;;;;;;;13.53;11.43;;;;;;;16.98;76.50;99858.63;1613464;88;21294;-56
2022/09/14 10:41:47;;;;;;;14.07;11.40;;;;;;;17.00;76.34;99848.19;1627951;88;21768;-57
2022/09/14 10:45:27;;;;;;;12.90;10.58;;;;;;;17.08;76.28;99867.23;1627687;88;21247;-60
2022/09/14 10:48:47;;;;;;;16.00;12.75;;;;;;;17.11;76.16;99865.95;1653123;82;21738;-55
2022/09/14 10:52:28;;;;;;;14.87;10.68;;;;;;;17.11;76.00;99869.54;1686056;84;21267;-56
2022/09/14 10:56:22;;;;;;;11.05;9.35;;;;;;;17.10;75.93;99867.01;1634423;85;21843;-57
2022/09/14 11:00:00;;;;;;;9.85;7.50;;;;;;;17.05;75.90;99862.70;1700010;83;21222;-55
2022/09/14 11:03:35;;;;;;;8.00;6.20;;;;;;;17.04;75.92;99870.70;1651201;85;21597;-54
2022/09/14 11:07:26;;;;;;;5.92;4.60;;;;;;;17.07;75.92;99859.17;1667108;83;22069;-55
2022/09/14 11:11:09;;;;;;;5.20;3.02;;;;;;;17.10;75.83;99862.86;1709002;82;21271;-54
2022/09/14 11:14:40;;;;;;;3.87;3.08;;;;;;;17.05;75.76;99859.94;1679930;84;21252;-55
2022/09/14 11:17:59;;;;;;;5.30;4.05;;;;;;;17.11;75.79;99861.24;1690200;83;21226;-54
2022/09/14 11:21:30;;;;;;;8.68;5.17;;;;;;;17.18;75.80;99864.79;1693836;83;21200;-54
2022/09/14 11:24:54;;;;;;;6.03;3.80;;;;;;;17.31;75.79;99866.02;1663936;84;21614;-54
2022/09/14 11:28:15;;;;;;;3.50;2.75;;;;;;;17.37;75.65;99858.17;1694676;83;21227;-55
2022/09/14 11:31:47;;;;;;;3.37;2.62;;;;;;;17.38;75.48;99870.06;1701142;83;21203;-54
2022/09/14 11:35:08;;;;;;;5.00;2.33;;;;;;;17.38;75.39;99864.52;1696284;83;21203;-55
2022/09/14 11:38:27;;;;;;;3.20;2.52;;;;;;;17.42;75.31;99868.01;1681602;84;21228;-55
2022/09/14 11:42:10;;;;;;;4.05;2.40;;;;;;;17.45;75.27;99860.65;1656275;84;21243;-55
2022/09/14 11:45:31;;;;;;;3.17;2.30;;;;;;;17.55;75.21;99862.87;1668044;84;21235;-55
2022/09/14 11:48:48;;;;;;;4.03;2.60;;;;;;;17.67;75.16;99859.07;1683507;84;21255;-54
2022/09/14 11:52:16;;;;;;;6.97;2.42;;;;;;;17.81;75.12;99867.48;1672348;84;21203;-56
2022/09/14 11:55:23;;;;;;;2.87;2.33;;;;;;;18.05;75.29;99851.78;1667769;85;21216;-55
2022/09/14 11:58:32;;;;;;;2.83;2.25;;;;;;;18.28;75.17;99846.84;1682706;84;21235;-56
2022/09/14 12:01:44;;;;;;;2.02;1.82;;;;;;;18.31;74.86;99838.91;1674742;83;21574;-56
2022/09/14 12:05:17;;;;;;;4.37;2.25;;;;;;;18.26;74.65;99831.84;1658776;86;21263;-54
2022/09/14 12:08:38;;;;;;;2.10;1.90;;;;;;;18.31;74.67;99825.05;1682122;84;21741;-54
2022/09/14 12:11:44;;;;;;;2.10;1.90;;;;;;;18.59;74.92;99828.52;1667806;84;21246;-55
2022/09/14 12:14:51;;;;;;;3.83;1.98;;;;;;;18.90;74.98;99832.31;1655004;86;21200;-55
2022/09/14 12:17:59;;;;;;;2.80;2.02;;;;;;;19.04;74.75;99829.02;1642437;85;21248;-56
2022/09/14 12:21:14;;;;;;;2.47;1.92;;;;;;;19.19;74.54;99832.67;1659408;84;21738;-56
2022/09/14 12:24:22;;;;;;;2.65;2.17;;;;;;;19.14;73.96;99840.34;1639877;86;21291;-56
2022/09/14 12:27:31;;;;;;;3.50;1.98;;;;;;;18.95;73.61;99831.02;1640770;85;21264;-56
2022/09/14 12:30:54;;;;;;;3.85;1.92;;;;;;;18.88;73.61;99833.09;1659393;86;21259;-56
2022/09/14 12:34:26;;;;;;;3.40;2.40;;;;;;;19.01;73.91;99828.68;1645961;84;21232;-55
2022/09/14 12:37:39;;;;;;;3.85;2.25;;;;;;;19.25;74.13;99825.59;1642415;85;21251;-56
2022/09/14 12:40:46;;;;;;;10.95;2.40;;;;;;;19.46;74.02;99821.88;1669229;83;21789;-55
2022/09/14 12:43:58;;;;;;;2.47;2.12;;;;;;;19.46;73.72;99821.34;1648200;85;21337;-57
2022/09/14 12:47:06;;;;;;;2.20;2.00;;;;;;;19.36;73.47;99821.69;1687119;83;21220;-56
2022/09/14 12:50:25;;;;;;;2.00;1.80;;;;;;;19.22;73.22;99831.64;1675134;83;21198;-57
2022/09/14 12:53:37;;;;;;;2.50;1.98;;;;;;;19.07;73.07;99829.08;1672337;83;21228;-56
2022/09/14 12:57:15;;;;;;;2.13;1.93;;;;;;;18.94;73.02;99821.88;1691722;83;21736;-56
2022/09/14 13:00:26;;;;;;;3.85;2.62;;;;;;;18.85;72.93;99812.21;1692831;83;22515;-57
2022/09/14 13:03:58;;;;;;;4.22;3.20;;;;;;;18.69;72.85;99819.91;1681471;83;21285;-55
2022/09/14 13:07:04;;;;;;;5.40;2.85;;;;;;;18.57;72.80;99823.74;1697458;83;21198;-55
2022/09/14 13:10:12;;;;;;;2.30;2.10;;;;;;;18.44;72.76;99827.59;1691428;84;21717;-56
2022/09/14 13:13:27;;;;;;;2.60;2.17;;;;;;;18.29;72.71;99831.89;1703373;84;21738;-55
2022/09/14 13:16:52;;;;;;;5.37;1.82;;;;;;;18.19;72.73;99836.63;1695638;84;21235;-55
2022/09/14 13:20:05;;;;;;;3.33;1.70;;;;;;;18.08;72.70;99837.98;1713564;82;21293;-56
2022/09/14 13:23:14;;;;;;;1.67;1.57;;;;;;;17.97;72.72;99837.42;1687966;84;22106;-56
2022/09/14 13:26:30;;;;;;;3.10;1.90;;;;;;;17.93;72.76;99835.69;1712736;82;21218;-54
2022/09/14 13:29:37;;;;;;;2.58;1.85;;;;;;;17.93;72.77;99838.98;1713931;82;21513;-56
2022/09/14 13:32:57;;;;;;;4.78;1.47;;;;;;;17.94;72.71;99835.98;1711061;83;21313;-57
2022/09/14 13:36:07;;;;;;;4.08;1.70;;;;;;;17.95;72.61;99838.22;1692259;84;21200;-57
2022/09/14 13:39:20;;;;;;;3.85;1.80;;;;;;;17.93;72.55;99834.30;1695600;84;21200;-56
2022/09/14 13:42:27;;;;;;;3.72;2.30;;;;;;;17.85;72.43;99834.08;1661815;84;21276;-55
2022/09/14 13:45:32;;;;;;;2.52;1.80;;;;;;;17.80;72.41;99840.04;1692472;84;21200;-57
2022/09/14 13:48:39;;;;;;;2.65;1.70;;;;;;;17.75;72.34;99835.20;1704698;84;21784;-56
2022/09/14 13:51:45;;;;;;;2.10;1.70;;;;;;;17.71;72.30;99838.69;1702059;83;21291;-57
2022/09/14 13:54:50;;;;;;;5.35;1.70;;;;;;;17.64;72.22;99829.62;1702288;84;21836;-57
2022/09/14 13:58:20;;;;;;;1.67;1.40;;;;;;;17.56;72.19;99836.86;1702718;84;21259;-56
2022/09/14 14:01:33;;;;;;;2.70;1.80;;;;;;;17.51;72.18;99829.80;1702722;84;21821;-56
2022/09/14 14:04:42;;;;;;;3.27;2.60;;;;;;;17.48;72.16;99831.66;1689587;82;21622;-56
2022/09/14 14:07:50;;;;;;;8.83;5.62;;;;;;;17.49;72.13;99826.44;1677750;84;21243;-55
2022/09/14 14:10:57;;;;;;;9.85;5.90;;;;;;;17.52;72.11;99830.12;1650174;84;21188;-57
2022/09/14 14:14:05;;;;;;;8.13;4.12;;;;;;;17.52;71.97;99832.33;1698560;84;21776;-57
2022/09/14 14:17:35;;;;;;;6.90;2.40;;;;;;;17.46;71.85;99828.27;1700794;84;21195;-56
2022/09/14 14:20:44;;;;;;;4.55;2.77;;;;;;;17.38;71.74;99841.86;1702258;82;21278;-56
2022/09/14 14:23:50;;;;;;;3.62;2.45;;;;;;;17.29;71.67;99852.09;1672523;85;21795;-57
2022/09/14 14:27:00;;;;;;;3.70;1.65;;;;;;;17.20;71.60;99853.49;1672338;85;21592;-57
2022/09/14 14:30:07;;;;;;;3.10;2.50;;;;;;;17.10;71.55;99849.03;1672805;85;21211;-56
2022/09/14 14:33:22;;;;;;;6.17;4.58;;;;;;;17.00;71.55;99839.89;1663948;85;21815;-57
2022/09/14 14:36:27;;;;;;;7.35;4.08;;;;;;;16.93;71.54;99840.52;1707579;83;22046;-57
2022/09/14 14:39:34;;;;;;;5.28;4.65;;;;;;;16.86;71.52;99829.20;1711295;82;21282;-57
2022/09/14 14:42:41;;;;;;;6.70;5.35;;;;;;;16.81;71.52;99827.69;1717588;83;21729;-57
2022/09/14 14:45:47;;;;;;;7.75;4.90;;;;;;;16.77;71.50;99837.50;1655724;85;21199;-58
2022/09/14 14:48:52;;;;;;;6.22;5.28;;;;;;;16.74;71.50;99835.20;1676737;85;21808;-58
2022/09/14 14:51:58;;;;;;;7.28;5.70;;;;;;;16.71;71.48;99831.52;1696435;82;21201;-56
2022/09/14 14:55:04;;;;;;;5.47;4.58;;;;;;;16.69;71.45;99834.50;1673373;85;21246;-56
2022/09/14 14:58:12;;;;;;;4.70;4.20;;;;;;;16.67;71.42;99836.64;1673629;84;21253;-57
2022/09/14 15:01:19;;;;;;;8.45;5.22;;;;;;;16.64;71.37;99840.39;1670541;84;21213;-57
2022/09/14 15:04:24;;;;;;;8.23;6.33;;;;;;;16.60;71.36;99840.03;1695529;84;21243;-56
2022/09/14 15:07:30;;;;;;;12.28;9.73;;;;;;;16.58;71.35;99839.93;1702421;83;21613;-56
2022/09/14 15:10:38;;;;;;;18.92;12.53;;;;;;;16.55;71.30;99841.77;1697305;83;21728;-56